Řízení letového provozu České republiky
Letiste: LKLN Aktualizace: 18.08.2018 11:01:06  UTC
 METAR LKLN 18.08. 11:00 ...
METAR LKLN 181100Z AUTO 06004KT 330V120 CAVOK 29/13 Q1020=